createdAt,value
2023-05-03T00:01:12.331Z,1.50
2023-05-03T00:03:41.668Z,1.95
2023-05-03T00:06:14.654Z,1.48
2023-05-03T00:08:40.956Z,1.83
2023-05-03T00:11:07.626Z,1.92
2023-05-03T00:13:33.650Z,1.50
2023-05-03T00:15:59.662Z,2.15
2023-05-03T00:18:25.481Z,1.60
2023-05-03T00:20:52.645Z,1.90
2023-05-03T00:23:18.418Z,2.10
2023-05-03T00:25:44.247Z,2.13
2023-05-03T00:28:10.071Z,1.50
2023-05-03T00:30:36.011Z,1.63
2023-05-03T00:33:01.854Z,2.05
2023-05-03T00:35:27.726Z,2.20
2023-05-03T00:37:53.543Z,1.65
2023-05-03T00:40:19.392Z,1.90
2023-05-03T00:42:48.056Z,1.52
2023-05-03T00:45:13.862Z,2.00
2023-05-03T00:47:39.886Z,1.65
2023-05-03T00:50:07.312Z,1.98
2023-05-03T00:52:36.134Z,1.80
2023-05-03T00:55:02.050Z,1.70
2023-05-03T00:57:29.010Z,2.00
2023-05-03T00:59:56.556Z,1.98
2023-05-03T01:02:22.416Z,2.25
2023-05-03T01:04:48.301Z,1.92
2023-05-03T01:07:26.092Z,1.40
2023-05-03T01:10:05.698Z,1.50
2023-05-03T01:12:46.623Z,2.00
2023-05-03T01:17:47.394Z,1.60
2023-05-03T01:20:13.893Z,1.35
2023-05-03T01:22:57.980Z,2.10
2023-05-03T01:25:24.056Z,1.70
2023-05-03T01:27:50.084Z,1.77
2023-05-03T01:30:16.317Z,3.05
2023-05-03T01:33:01.240Z,2.00
2023-05-03T01:35:33.330Z,2.05
2023-05-03T01:37:59.512Z,2.15
2023-05-03T01:40:27.358Z,1.85
2023-05-03T01:42:54.382Z,1.63
2023-05-03T01:45:20.402Z,2.10
2023-05-03T01:47:46.386Z,2.08
2023-05-03T01:50:12.286Z,1.50
2023-05-03T01:52:38.200Z,1.70
2023-05-03T01:55:04.296Z,1.85
2023-05-03T01:57:30.112Z,2.15
2023-05-03T01:59:56.080Z,1.92
2023-05-03T02:02:22.412Z,2.17
2023-05-03T02:04:48.336Z,2.47
2023-05-03T02:07:14.139Z,2.17
2023-05-03T02:09:39.943Z,2.10
2023-05-03T02:12:06.446Z,2.53
2023-05-03T02:14:32.484Z,3.15
2023-05-03T02:16:58.567Z,2.05
2023-05-03T02:19:24.436Z,1.92
2023-05-03T02:21:50.768Z,2.25
2023-05-03T02:24:16.985Z,1.83
2023-05-03T02:26:42.807Z,1.67
2023-05-03T02:29:09.348Z,2.15
2023-05-03T02:31:35.342Z,1.88
2023-05-03T02:34:01.328Z,2.55
2023-05-03T02:36:30.511Z,2.10
2023-05-03T02:38:56.293Z,1.77
2023-05-03T02:41:22.145Z,1.80
2023-05-03T02:43:48.033Z,2.10
2023-05-03T02:46:13.959Z,1.83
2023-05-03T02:48:39.776Z,1.70
2023-05-03T02:51:05.730Z,1.63
2023-05-03T02:53:31.554Z,3.25
2023-05-03T02:55:57.345Z,1.75
2023-05-03T02:58:23.151Z,2.15
2023-05-03T03:00:52.157Z,1.80
2023-05-03T03:03:17.949Z,1.75
2023-05-03T03:05:43.881Z,1.40
2023-05-03T03:08:09.850Z,1.83
2023-05-03T03:10:35.828Z,2.40
2023-05-03T03:13:01.658Z,1.40
2023-05-03T03:15:27.544Z,1.73
2023-05-03T03:17:56.997Z,1.40
2023-05-03T03:20:22.893Z,1.55
2023-05-03T03:22:48.770Z,2.50
2023-05-03T03:25:15.431Z,2.22
2023-05-03T03:27:41.237Z,2.22
2023-05-03T03:30:07.720Z,2.10
2023-05-03T03:32:33.545Z,2.80
2023-05-03T03:34:59.416Z,2.15
2023-05-03T03:37:25.435Z,1.80
2023-05-03T03:39:51.466Z,2.13
2023-05-03T03:42:18.980Z,2.28
2023-05-03T03:44:45.033Z,1.73
2023-05-03T03:47:11.630Z,2.13
2023-05-03T03:49:37.501Z,1.95
2023-05-03T03:52:03.447Z,2.53
2023-05-03T03:54:29.236Z,2.40
2023-05-03T03:56:55.081Z,4.90
2023-05-03T03:59:20.986Z,3.40
2023-05-03T04:01:47.910Z,2.50
2023-05-03T04:04:14.236Z,2.40
2023-05-03T04:06:40.881Z,2.70
2023-05-03T04:09:09.418Z,2.85
2023-05-03T04:11:37.189Z,2.97
2023-05-03T04:14:04.013Z,2.30
2023-05-03T04:16:30.394Z,2.13
2023-05-03T04:18:59.850Z,2.38
2023-05-03T04:21:29.072Z,2.17
2023-05-03T04:23:56.706Z,2.55
2023-05-03T04:32:03.731Z,1.95
2023-05-03T04:34:33.130Z,2.88
2023-05-03T04:37:00.593Z,1.95
2023-05-03T04:39:28.139Z,1.77
2023-05-03T04:41:55.161Z,1.95
2023-05-03T04:44:23.375Z,1.80
2023-05-03T04:46:54.144Z,1.95
2023-05-03T04:49:33.412Z,3.05
2023-05-03T04:52:01.764Z,1.95
2023-05-03T04:54:28.794Z,1.63
2023-05-03T04:56:59.335Z,2.03
2023-05-03T04:59:42.731Z,2.03
2023-05-03T05:02:15.510Z,1.83
2023-05-03T05:04:42.340Z,1.98
2023-05-03T05:07:09.916Z,2.33
2023-05-03T05:09:38.197Z,2.15
2023-05-03T05:12:05.894Z,1.40
2023-05-03T05:14:35.746Z,1.77
2023-05-03T05:19:43.690Z,1.48
2023-05-03T05:27:47.726Z,2.05
2023-05-03T05:30:46.867Z,1.52
2023-05-03T05:33:15.614Z,1.67
2023-05-03T05:41:13.214Z,1.67
2023-05-03T05:43:42.242Z,1.60
2023-05-03T05:49:06.598Z,0.98
2023-05-03T05:54:28.060Z,1.10
2023-05-03T05:57:00.979Z,1.90
2023-05-03T06:42:38.868Z,2.17
2023-05-03T06:45:06.415Z,1.60
2023-05-03T06:47:37.877Z,1.70
2023-05-03T06:50:07.064Z,1.35
2023-05-03T06:52:37.266Z,1.65
2023-05-03T06:55:05.358Z,2.03
2023-05-03T06:57:35.577Z,2.42
2023-05-03T07:00:30.593Z,1.90
2023-05-03T07:05:47.135Z,2.38
2023-05-03T07:10:55.143Z,2.55
2023-05-03T07:13:31.236Z,1.92
2023-05-03T07:16:08.870Z,1.40
2023-05-03T07:21:18.127Z,1.50
2023-05-03T07:26:29.724Z,1.70
2023-05-03T07:32:13.704Z,2.17
2023-05-03T08:09:40.070Z,1.33
2023-05-03T08:14:51.721Z,1.25
2023-05-03T08:17:22.337Z,2.20
2023-05-03T08:19:50.945Z,2.15
2023-05-03T08:22:40.214Z,1.63
2023-05-03T08:25:16.004Z,1.13
2023-05-03T12:23:26.546Z,1.75
2023-05-03T12:25:56.758Z,2.00
2023-05-03T12:28:23.753Z,2.35
2023-05-03T12:30:53.965Z,2.35
2023-05-03T12:33:23.688Z,1.60
2023-05-03T12:35:53.408Z,1.90
2023-05-03T12:38:25.288Z,2.30
2023-05-03T12:40:54.985Z,2.40
2023-05-03T12:43:25.178Z,2.17
2023-05-03T12:46:09.405Z,2.50
2023-05-03T12:48:40.437Z,1.67
2023-05-03T12:53:44.767Z,1.95
2023-05-03T12:56:16.892Z,2.17
2023-05-03T12:59:07.720Z,1.73
2023-05-03T13:04:31.906Z,1.70
2023-05-03T13:06:59.472Z,2.47
2023-05-03T13:09:37.813Z,2.47
2023-05-03T13:12:15.897Z,2.13
2023-05-03T13:15:38.643Z,2.53
2023-05-03T13:20:52.522Z,1.27
2023-05-03T13:23:22.686Z,1.95
2023-05-03T13:25:52.611Z,1.55
2023-05-03T13:28:23.947Z,1.60
2023-05-03T13:33:44.276Z,2.00
2023-05-03T13:36:13.413Z,1.90
2023-05-03T13:38:42.037Z,1.80
2023-05-03T13:41:11.739Z,1.80
2023-05-03T13:49:50.456Z,1.88
2023-05-03T13:55:00.822Z,1.77
2023-05-03T13:57:27.150Z,2.10
2023-05-03T14:00:00.948Z,1.50
2023-05-03T14:02:30.470Z,1.70
2023-05-03T14:04:57.174Z,2.05
2023-05-03T14:10:11.602Z,1.45
2023-05-03T14:12:46.426Z,1.47
2023-05-03T14:20:54.724Z,2.45
2023-05-03T14:26:06.833Z,1.92
2023-05-03T14:34:03.424Z,1.67
2023-05-03T14:36:35.685Z,1.92
2023-05-03T14:39:06.336Z,1.98
2023-05-03T14:44:23.163Z,2.25
2023-05-03T14:55:03.709Z,2.10
2023-05-03T14:57:35.304Z,2.83
2023-05-03T15:02:57.266Z,2.30
2023-05-03T15:08:11.266Z,1.60
2023-05-03T15:10:39.355Z,1.63
2023-05-03T15:13:06.209Z,2.10
2023-05-03T15:15:56.493Z,1.60
2023-05-03T15:18:26.056Z,1.42
2023-05-03T15:20:53.115Z,2.08
2023-05-03T15:26:06.362Z,1.98
2023-05-03T15:28:33.340Z,1.67
2023-05-03T15:31:03.326Z,2.25
2023-05-03T15:33:43.311Z,2.00
2023-05-03T15:47:46.600Z,1.98
2023-05-03T15:50:15.698Z,1.85
2023-05-03T15:52:42.859Z,1.85
2023-05-03T15:55:10.920Z,1.60
2023-05-03T15:57:39.615Z,1.40
2023-05-03T16:00:13.753Z,2.83
2023-05-03T16:02:43.299Z,1.50
2023-05-03T16:05:11.108Z,1.25
2023-05-03T16:07:37.745Z,1.55
2023-05-03T16:10:04.819Z,1.98
2023-05-03T16:12:37.528Z,1.45
2023-05-03T16:15:14.715Z,2.00
2023-05-03T16:17:41.562Z,1.98
2023-05-03T16:20:11.263Z,2.03
2023-05-03T16:22:39.101Z,1.42
2023-05-03T16:25:21.735Z,1.77
2023-05-03T16:33:14.192Z,1.77
2023-05-03T16:35:41.206Z,1.73
2023-05-03T16:38:07.385Z,1.70
2023-05-03T16:40:40.499Z,1.90
2023-05-03T16:43:07.619Z,1.48
2023-05-03T16:45:42.747Z,1.42
2023-05-03T16:48:10.949Z,1.55
2023-05-03T16:50:44.483Z,1.65
2023-05-03T16:53:12.322Z,1.52
2023-05-03T16:55:38.754Z,1.55
2023-05-03T16:58:05.839Z,1.67
2023-05-03T17:00:33.484Z,1.40
2023-05-03T17:03:03.364Z,1.90
2023-05-03T17:05:32.818Z,1.58
2023-05-03T17:13:12.198Z,1.75
2023-05-03T17:16:10.675Z,1.30
2023-05-03T17:18:38.738Z,1.85
2023-05-03T17:21:05.512Z,2.40
2023-05-03T17:23:38.836Z,1.90
2023-05-03T17:26:08.337Z,1.20
2023-05-03T17:28:35.912Z,1.10
2023-05-03T17:31:04.826Z,1.48
2023-05-03T17:33:31.393Z,1.40
2023-05-03T17:36:02.713Z,1.48
2023-05-03T17:38:29.490Z,1.63
2023-05-03T17:40:55.785Z,1.30
2023-05-03T17:43:25.802Z,1.55
2023-05-03T17:45:54.779Z,1.63
2023-05-03T17:51:01.874Z,1.15
2023-05-03T17:53:28.766Z,1.27
2023-05-03T17:55:57.100Z,1.40
2023-05-03T17:58:27.524Z,1.70
2023-05-03T18:00:56.981Z,1.35
2023-05-03T18:03:26.708Z,1.20
2023-05-03T18:05:53.010Z,1.30
2023-05-03T18:08:21.610Z,1.83
2023-05-03T18:10:50.563Z,2.17
2023-05-03T18:13:18.216Z,1.60
2023-05-03T18:15:56.019Z,1.70
2023-05-03T18:18:22.246Z,1.52
2023-05-03T18:20:59.837Z,1.33
2023-05-03T18:23:27.544Z,1.48
2023-05-03T18:25:53.992Z,1.48
2023-05-03T18:28:24.605Z,2.00
2023-05-03T18:30:56.222Z,1.50
2023-05-03T18:33:22.716Z,1.77
2023-05-03T18:35:53.545Z,1.42
2023-05-03T18:38:21.648Z,1.65
2023-05-03T18:40:54.062Z,1.50
2023-05-03T18:43:22.536Z,2.08
2023-05-03T18:48:32.300Z,1.65
2023-05-03T18:51:05.772Z,1.60
2023-05-03T18:53:34.710Z,1.20
2023-05-03T18:56:02.722Z,1.10
2023-05-03T18:58:39.366Z,1.58
2023-05-03T19:01:07.410Z,1.55
2023-05-03T19:03:34.269Z,1.60
2023-05-03T19:06:04.266Z,2.08
2023-05-03T19:08:32.557Z,1.90
2023-05-03T19:11:13.235Z,1.48
2023-05-03T19:13:51.986Z,2.03
2023-05-03T19:16:19.599Z,1.85
2023-05-03T19:18:47.774Z,1.85
2023-05-03T19:21:17.950Z,1.73
2023-05-03T19:23:47.506Z,4.13
2023-05-03T19:26:13.991Z,2.30
2023-05-03T19:28:41.441Z,2.35
2023-05-03T19:31:09.703Z,2.70
2023-05-03T19:33:36.870Z,3.40
2023-05-03T19:36:06.183Z,2.75
2023-05-03T19:38:39.233Z,4.57
2023-05-03T19:41:09.113Z,4.85
2023-05-03T19:43:36.300Z,3.97
2023-05-03T19:46:06.535Z,3.45
2023-05-03T19:48:35.680Z,4.53
2023-05-03T19:53:49.958Z,3.28
2023-05-03T19:56:17.870Z,3.53
2023-05-03T19:58:44.757Z,4.35
2023-05-03T20:01:11.153Z,3.58
2023-05-03T20:03:37.952Z,4.22
2023-05-03T20:06:06.642Z,5.38
2023-05-03T20:08:33.277Z,3.30
2023-05-03T20:11:04.900Z,2.97
2023-05-03T20:13:32.342Z,2.78
2023-05-03T20:16:01.183Z,2.90
2023-05-03T20:18:30.032Z,5.20
2023-05-03T20:20:57.274Z,4.38
2023-05-03T20:23:23.331Z,3.35
2023-05-03T20:25:49.436Z,3.75
2023-05-03T20:28:18.420Z,3.78
2023-05-03T20:30:44.805Z,2.58
2023-05-03T20:33:11.839Z,2.72
2023-05-03T20:35:39.193Z,2.60
2023-05-03T20:38:05.492Z,2.30
2023-05-03T20:40:36.229Z,2.70
2023-05-03T20:45:29.784Z,2.95
2023-05-03T20:47:56.310Z,2.17
2023-05-03T20:50:23.776Z,4.05
2023-05-03T20:52:56.203Z,2.30
2023-05-03T20:55:22.790Z,2.25
2023-05-03T20:57:49.418Z,3.65
2023-05-03T21:00:15.801Z,2.60
2023-05-03T21:02:43.693Z,2.58
2023-05-03T21:05:10.624Z,2.80
2023-05-03T21:07:40.505Z,2.88
2023-05-03T21:10:08.186Z,2.30
2023-05-03T21:12:34.790Z,2.65
2023-05-03T21:15:22.641Z,2.30
2023-05-03T21:17:49.359Z,2.88
2023-05-03T21:20:15.747Z,2.28
2023-05-03T21:22:41.923Z,2.67
2023-05-03T21:25:08.771Z,2.30
2023-05-03T21:27:34.938Z,2.13
2023-05-03T21:30:02.203Z,2.80
2023-05-03T21:32:28.617Z,2.60
2023-05-03T21:34:54.600Z,2.97
2023-05-03T21:37:21.956Z,1.98
2023-05-03T21:40:00.620Z,2.53
2023-05-03T21:42:28.238Z,1.95
2023-05-03T21:45:03.612Z,2.45
2023-05-03T21:47:30.937Z,2.20
2023-05-03T21:49:57.164Z,2.28
2023-05-03T21:52:24.425Z,2.35
2023-05-03T21:54:51.778Z,3.08
2023-05-03T21:57:18.351Z,2.08
2023-05-03T21:59:44.661Z,2.88
2023-05-03T22:02:10.539Z,3.30
2023-05-03T22:04:36.347Z,1.88
2023-05-03T22:07:03.265Z,2.38
2023-05-03T22:09:29.874Z,1.90
2023-05-03T22:11:56.073Z,2.47
2023-05-03T22:14:22.016Z,1.98
2023-05-03T22:16:48.121Z,2.50
2023-05-03T22:19:13.853Z,3.08
2023-05-03T22:21:39.753Z,2.95
2023-05-03T22:24:05.964Z,3.00
2023-05-03T22:26:31.729Z,3.22
2023-05-03T22:28:58.474Z,4.45
2023-05-03T22:31:25.035Z,4.68
2023-05-03T22:33:52.729Z,4.30
2023-05-03T22:36:18.643Z,5.43
2023-05-03T22:38:44.488Z,4.50
2023-05-03T22:41:10.593Z,3.75
2023-05-03T22:43:36.502Z,3.33
2023-05-03T22:46:02.941Z,4.07
2023-05-03T22:48:31.599Z,4.05
2023-05-03T22:50:58.007Z,4.00
2023-05-03T22:53:24.339Z,3.47
2023-05-03T22:56:00.766Z,3.70
2023-05-03T22:58:27.402Z,3.10
2023-05-03T23:00:53.519Z,3.60
2023-05-03T23:03:20.116Z,2.40
2023-05-03T23:05:46.902Z,2.45
2023-05-03T23:08:13.350Z,2.85
2023-05-03T23:10:39.466Z,3.55
2023-05-03T23:13:05.322Z,3.38
2023-05-03T23:15:31.513Z,3.20
2023-05-03T23:17:57.529Z,2.80
2023-05-03T23:20:23.484Z,3.30
2023-05-03T23:22:49.312Z,4.32
2023-05-03T23:25:15.954Z,2.60
2023-05-03T23:27:41.947Z,3.15
2023-05-03T23:30:09.071Z,3.17
2023-05-03T23:32:35.718Z,3.13
2023-05-03T23:35:02.254Z,3.15
2023-05-03T23:37:28.178Z,2.97
2023-05-03T23:39:54.001Z,3.15
2023-05-03T23:42:20.035Z,3.25
2023-05-03T23:44:53.733Z,3.92
2023-05-03T23:47:20.981Z,3.30
2023-05-03T23:49:46.825Z,3.60
2023-05-03T23:52:12.658Z,4.22
2023-05-03T23:54:38.548Z,3.38
2023-05-03T23:57:04.402Z,3.83
2023-05-03T23:59:30.185Z,3.20
